Time;durP1;ratioP1;P1;durP2;ratioP2;P2;SDS_P1;SDS_P2;PMS_P1;PMS_P2;Temp;Humidity;BMP_temperature;BMP_pressure;BME280_temperature;BME280_humidity;BME280_pressure;Samples;Min_cycle;Max_cycle;Signal;HPM_P1;HPM_P2
2020/12/14 06:57:20;;;;;;;13.55;9.83;;;;;;;5.69;100.00;101222.05;1926613;73;22164;-80
2020/12/14 06:59:52;;;;;;;17.87;10.80;;;;;;;5.67;100.00;101232.02;1827836;74;21025;-86
2020/12/14 07:02:41;;;;;;;12.58;9.23;;;;;;;5.69;100.00;101232.79;1898908;74;21176;-86
2020/12/14 07:05:33;;;;;;;13.38;9.83;;;;;;;5.69;100.00;101238.78;1788543;80;21072;-82
2020/12/14 07:08:02;;;;;;;12.58;9.60;;;;;;;5.70;100.00;101249.92;1787962;79;21673;-85
2020/12/14 07:10:35;;;;;;;10.05;7.60;;;;;;;5.71;100.00;101250.33;1823116;77;21116;-81
2020/12/14 07:13:09;;;;;;;8.95;7.53;;;;;;;5.69;100.00;101255.96;1793195;79;21082;-87
2020/12/14 07:15:42;;;;;;;18.00;9.95;;;;;;;5.68;100.00;101257.69;1763550;80;21196;-83
2020/12/14 07:18:15;;;;;;;12.18;7.75;;;;;;;5.66;100.00;101258.65;1764927;79;21020;-77
2020/12/14 07:21:03;;;;;;;15.10;9.83;;;;;;;5.64;100.00;101260.45;1772078;79;21089;-85
2020/12/14 07:23:27;;;;;;;19.98;12.35;;;;;;;5.61;100.00;101266.56;1741138;79;21138;-78
2020/12/14 07:25:56;;;;;;;25.82;12.85;;;;;;;5.61;100.00;101267.84;1800437;79;21135;-78
2020/12/14 07:28:47;;;;;;;30.80;18.40;;;;;;;5.61;100.00;101268.28;1796831;79;21191;-78
2020/12/14 07:31:23;;;;;;;18.60;10.20;;;;;;;5.60;100.00;101270.46;1797046;78;21031;-81
2020/12/14 07:33:57;;;;;;;13.70;7.60;;;;;;;5.56;100.00;101274.03;1797250;79;21063;-85
2020/12/14 07:36:27;;;;;;;18.57;10.80;;;;;;;5.57;100.00;101279.14;1777201;78;21043;-81
2020/12/14 07:38:58;;;;;;;18.70;8.68;;;;;;;5.60;100.00;101278.19;1765291;79;21106;-78
2020/12/14 07:41:28;;;;;;;15.18;8.93;;;;;;;5.59;100.00;101279.91;1784696;79;21199;-81
2020/12/14 07:43:58;;;;;;;8.45;5.37;;;;;;;5.55;100.00;101283.95;1735309;81;21671;-86
2020/12/14 07:46:34;;;;;;;4.97;3.50;;;;;;;5.53;100.00;101288.30;1771212;81;20977;-80
2020/12/14 07:49:11;;;;;;;9.98;6.00;;;;;;;5.56;100.00;101291.61;1796000;79;21060;-86
2020/12/14 07:51:43;;;;;;;24.87;12.95;;;;;;;5.57;100.00;101297.16;1787737;79;21104;-77
2020/12/14 07:54:19;;;;;;;22.70;11.90;;;;;;;5.56;100.00;101299.33;1784118;79;21252;-81
2020/12/14 07:56:58;;;;;;;15.50;6.62;;;;;;;5.57;100.00;101305.33;1827131;77;21243;-76
2020/12/14 07:59:30;;;;;;;9.05;5.50;;;;;;;5.55;100.00;101305.84;1808411;78;21743;-82
2020/12/14 08:01:58;;;;;;;5.35;4.15;;;;;;;5.54;100.00;101310.14;1785905;78;21548;-84
2020/12/14 08:04:32;;;;;;;3.92;3.00;;;;;;;5.57;100.00;101310.03;1793234;79;21044;-77
2020/12/14 08:07:02;;;;;;;5.53;3.62;;;;;;;5.61;100.00;101308.20;1795952;78;21827;-83
2020/12/14 08:09:36;;;;;;;4.97;4.12;;;;;;;5.62;100.00;101308.13;1781118;78;21265;-77
2020/12/14 08:12:06;;;;;;;5.03;3.60;;;;;;;5.63;100.00;101312.39;1786780;80;21112;-82
2020/12/14 08:14:35;;;;;;;4.60;2.98;;;;;;;5.63;100.00;101305.95;1775921;78;21178;-80
2020/12/14 08:17:03;;;;;;;8.53;5.33;;;;;;;5.63;100.00;101302.09;1797031;79;21112;-79
2020/12/14 08:19:37;;;;;;;10.78;4.92;;;;;;;5.63;100.00;101306.39;1821458;77;22080;-81
2020/12/14 08:22:10;;;;;;;5.35;3.62;;;;;;;5.61;100.00;101303.05;1785295;79;21077;-77
2020/12/14 08:24:41;;;;;;;4.55;3.87;;;;;;;5.63;100.00;101306.39;1785760;79;21085;-77
2020/12/14 08:27:17;;;;;;;4.22;3.77;;;;;;;5.66;100.00;101303.27;1788009;79;21145;-79
2020/12/14 08:30:01;;;;;;;5.15;4.08;;;;;;;5.69;100.00;101297.16;1758291;80;21164;-74
2020/12/14 08:32:31;;;;;;;4.42;3.95;;;;;;;5.71;100.00;101305.22;1739778;78;21215;-88
2020/12/14 08:34:59;;;;;;;5.28;3.85;;;;;;;5.73;100.00;101307.75;1799327;79;20954;-87
2020/12/14 08:37:27;;;;;;;4.97;3.52;;;;;;;5.73;100.00;101302.16;1807019;79;21631;-78
2020/12/14 08:40:02;;;;;;;3.83;3.42;;;;;;;5.72;100.00;101300.47;1777496;80;21111;-77
2020/12/14 08:42:32;;;;;;;3.55;3.10;;;;;;;5.74;100.00;101301.24;1777275;80;21171;-79
2020/12/14 08:45:13;;;;;;;3.87;2.72;;;;;;;5.75;100.00;101299.07;1777164;80;21256;-77
2020/12/14 08:47:43;;;;;;;4.10;3.20;;;;;;;5.75;100.00;101295.20;1778346;79;21227;-82
2020/12/14 08:50:19;;;;;;;3.20;2.83;;;;;;;5.72;100.00;101294.03;1806605;79;20994;-83
2020/12/14 08:52:42;;;;;;;2.60;2.40;;;;;;;5.73;100.00;101300.88;1768045;80;21009;-82
2020/12/14 08:55:10;;;;;;;3.22;2.83;;;;;;;5.71;100.00;101298.78;1766626;79;21187;-81
2020/12/14 08:57:42;;;;;;;5.28;4.20;;;;;;;5.74;100.00;101299.95;1761966;79;22674;-77
2020/12/14 09:00:13;;;;;;;7.62;5.62;;;;;;;5.81;100.00;101296.27;1759881;80;21045;-82
2020/12/14 09:02:48;;;;;;;6.03;4.70;;;;;;;5.89;100.00;101298.61;1768156;81;21010;-87
2020/12/14 09:05:19;;;;;;;4.55;3.55;;;;;;;5.95;100.00;101299.67;1790202;79;21073;-86
2020/12/14 09:07:50;;;;;;;5.12;3.85;;;;;;;6.02;100.00;101298.55;1786862;79;20928;-86
2020/12/14 09:10:22;;;;;;;6.78;3.92;;;;;;;5.98;100.00;101298.27;1767612;81;21350;-82
2020/12/14 09:12:50;;;;;;;4.03;3.40;;;;;;;5.96;100.00;101295.36;1784113;78;21074;-78
2020/12/14 09:15:20;;;;;;;4.40;2.95;;;;;;;5.92;100.00;101301.08;1764194;81;21105;-80
2020/12/14 09:17:49;;;;;;;3.20;2.65;;;;;;;5.94;100.00;101297.98;1767979;80;20922;-75
2020/12/14 09:20:20;;;;;;;4.20;3.22;;;;;;;5.97;100.00;101288.04;1768023;80;21092;-83
2020/12/14 09:22:50;;;;;;;;;;;;;;;5.98;100.00;101298.71;1770735;80;22290;-85
2020/12/14 09:25:18;;;;;;;3.25;2.83;;;;;;;5.99;100.00;101295.25;1767957;79;20131;-83
2020/12/14 09:27:47;;;;;;;7.35;4.40;;;;;;;5.96;100.00;101296.66;1766959;80;22364;-84
2020/12/14 09:30:17;;;;;;;5.42;3.87;;;;;;;5.93;100.00;101294.19;1767027;81;21214;-79
2020/12/14 09:32:45;;;;;;;5.08;4.00;;;;;;;5.92;100.00;101289.48;1768222;80;21559;-77
2020/12/14 09:35:16;;;;;;;4.45;3.92;;;;;;;5.95;100.00;101277.78;1767926;80;21594;-88
2020/12/14 09:37:46;;;;;;;4.45;3.83;;;;;;;5.98;100.00;101280.23;1767185;80;21008;-82
2020/12/14 09:40:16;;;;;;;5.47;4.92;;;;;;;6.01;100.00;101276.26;1767006;80;21578;-81
2020/12/14 09:42:45;;;;;;;6.17;5.10;;;;;;;6.05;100.00;101273.13;1766664;80;21614;-82
2020/12/14 09:45:13;;;;;;;5.97;5.20;;;;;;;6.11;100.00;101272.89;1773363;79;21139;-80
2020/12/14 09:47:44;;;;;;;6.80;6.00;;;;;;;6.17;100.00;101276.07;1799974;78;21144;-85
2020/12/14 09:50:13;;;;;;;7.27;5.67;;;;;;;6.19;100.00;101270.40;1767964;81;21084;-87
2020/12/14 09:52:43;;;;;;;7.92;6.65;;;;;;;6.18;100.00;101269.19;1788263;78;21102;-78
2020/12/14 09:55:12;;;;;;;6.40;5.40;;;;;;;6.15;100.00;101268.86;1768085;81;21066;-88
2020/12/14 09:57:40;;;;;;;18.17;14.95;;;;;;;6.15;100.00;101275.30;1780157;79;20986;-88
2020/12/14 10:00:10;;;;;;;7.55;6.62;;;;;;;6.13;100.00;101271.92;1785896;79;21488;-87
2020/12/14 10:02:39;;;;;;;6.80;5.78;;;;;;;6.13;100.00;101269.34;1784981;80;21019;-82
2020/12/14 10:05:09;;;;;;;6.08;4.90;;;;;;;6.16;100.00;101279.53;1786080;78;21623;-79
2020/12/14 10:07:41;;;;;;;6.67;5.40;;;;;;;6.18;100.00;101284.20;1816798;79;21173;-84
2020/12/14 10:10:07;;;;;;;11.05;8.23;;;;;;;6.17;100.00;101281.22;1785680;79;21131;-83
2020/12/14 10:12:35;;;;;;;7.83;6.37;;;;;;;6.17;100.00;101283.80;1786421;79;21552;-80
2020/12/14 10:15:09;;;;;;;7.00;5.55;;;;;;;6.16;100.00;101279.98;1778220;80;21821;-78
2020/12/14 10:17:39;;;;;;;10.15;6.92;;;;;;;6.14;100.00;101275.34;1794624;79;21264;-86
2020/12/14 10:20:08;;;;;;;17.77;9.48;;;;;;;6.15;100.00;101278.32;1794063;79;22351;-83
2020/12/14 10:22:39;;;;;;;28.38;13.72;;;;;;;6.14;100.00;101271.03;1808684;78;21832;-80
2020/12/14 10:25:10;;;;;;;9.68;6.28;;;;;;;6.13;100.00;101271.08;1803036;78;21413;-87
2020/12/14 10:27:39;;;;;;;20.12;11.05;;;;;;;6.08;100.00;101268.70;1775040;79;21044;-83
2020/12/14 10:30:07;;;;;;;8.50;5.90;;;;;;;6.08;100.00;101274.29;1793343;79;21675;-87
2020/12/14 10:32:39;;;;;;;5.35;4.58;;;;;;;6.10;100.00;101269.91;1787942;79;21219;-81
2020/12/14 10:35:12;;;;;;;4.37;3.87;;;;;;;6.14;100.00;101265.04;1823231;78;21009;-82
2020/12/14 10:37:41;;;;;;;5.25;4.17;;;;;;;6.19;100.00;101263.14;1814640;78;21564;-81
2020/12/14 10:40:12;;;;;;;6.33;4.50;;;;;;;6.24;100.00;101263.34;1818594;78;21563;-84
2020/12/14 10:42:44;;;;;;;7.47;4.72;;;;;;;6.25;100.00;101266.30;1789976;78;21659;-80
2020/12/14 10:45:12;;;;;;;8.50;5.70;;;;;;;6.25;100.00;101266.30;1791233;80;20905;-84
2020/12/14 10:47:44;;;;;;;5.67;4.28;;;;;;;6.27;100.00;101261.94;1805751;79;21066;-87
2020/12/14 10:50:17;;;;;;;7.25;5.22;;;;;;;6.27;100.00;101258.52;1759776;81;21656;-80
2020/12/14 10:52:45;;;;;;;9.13;6.53;;;;;;;6.27;100.00;101267.54;1779886;80;21706;-83
2020/12/14 10:55:14;;;;;;;7.78;5.47;;;;;;;6.26;100.00;101261.54;1822136;78;21654;-80
2020/12/14 10:57:41;;;;;;;5.37;4.53;;;;;;;6.26;100.00;101260.70;1827600;77;21033;-82
2020/12/14 11:00:10;;;;;;;4.67;3.75;;;;;;;6.28;100.00;101253.77;1797372;78;21699;-82
2020/12/14 11:02:39;;;;;;;4.45;3.40;;;;;;;6.35;100.00;101252.16;1817125;79;22070;-88
2020/12/14 11:05:11;;;;;;;6.97;3.37;;;;;;;6.39;100.00;101248.57;1806430;79;20997;-81
2020/12/14 11:07:43;;;;;;;4.85;3.60;;;;;;;6.44;100.00;101254.00;1778582;79;21081;-80
2020/12/14 11:10:12;;;;;;;5.42;3.45;;;;;;;6.51;100.00;101261.89;1787226;79;20912;-85
2020/12/14 11:12:40;;;;;;;4.80;3.70;;;;;;;6.54;100.00;101260.48;1786649;79;21176;-85
2020/12/14 11:15:09;;;;;;;4.30;3.50;;;;;;;6.55;100.00;101270.72;1757623;80;21544;-88
2020/12/14 11:17:40;;;;;;;4.28;3.55;;;;;;;6.57;100.00;101273.25;1767787;79;21148;-85
2020/12/14 11:20:09;;;;;;;4.67;4.12;;;;;;;6.57;100.00;101280.98;1788147;80;21200;-83
2020/12/14 11:22:41;;;;;;;3.67;3.37;;;;;;;6.56;100.00;101281.42;1792495;78;21538;-86
2020/12/14 11:25:10;;;;;;;4.10;3.30;;;;;;;6.54;100.00;101283.69;1809833;79;21180;-83
2020/12/14 11:27:38;;;;;;;4.28;3.72;;;;;;;6.55;100.00;101287.92;1794494;79;22096;-88
2020/12/14 11:30:07;;;;;;;4.53;3.55;;;;;;;6.58;100.00;101290.38;1807693;78;21155;-81
2020/12/14 11:32:35;;;;;;;4.95;4.30;;;;;;;6.58;100.00;101295.09;1814957;78;21013;-88
2020/12/14 11:35:04;;;;;;;8.23;4.92;;;;;;;6.59;100.00;101292.91;1771607;79;21486;-86
2020/12/14 11:37:35;;;;;;;5.17;4.15;;;;;;;6.58;100.00;101301.98;1782060;80;21461;-84
2020/12/14 11:40:06;;;;;;;9.88;6.22;;;;;;;6.52;100.00;101305.64;1822607;78;21422;-90
2020/12/14 11:42:33;;;;;;;22.17;12.00;;;;;;;6.46;100.00;101305.89;1784067;79;21064;-85
2020/12/14 11:45:01;;;;;;;38.63;19.98;;;;;;;6.45;100.00;101305.93;1822499;77;21115;-82
2020/12/14 11:47:30;;;;;;;24.80;14.18;;;;;;;6.45;100.00;101313.66;1779972;80;21054;-85
2020/12/14 11:49:58;;;;;;;16.07;10.18;;;;;;;6.42;100.00;101313.34;1788424;79;21094;-83
2020/12/14 11:52:28;;;;;;;10.05;7.05;;;;;;;6.42;100.00;101319.78;1821450;78;21361;-80
2020/12/14 11:54:56;;;;;;;9.80;7.33;;;;;;;6.44;100.00;101314.59;1812382;78;21128;-83
2020/12/14 11:57:24;;;;;;;5.10;4.35;;;;;;;6.46;100.00;101314.91;1790827;78;21178;-81
2020/12/14 11:59:53;;;;;;;9.73;6.12;;;;;;;6.49;100.00;101312.66;1795058;78;21116;-85
2020/12/14 12:02:21;;;;;;;8.10;5.72;;;;;;;6.51;100.00;101312.98;1796468;78;21501;-84
2020/12/14 12:04:49;;;;;;;9.60;6.42;;;;;;;6.54;100.00;101309.47;1791802;78;21191;-85
2020/12/14 12:07:21;;;;;;;9.53;6.67;;;;;;;6.55;100.00;101310.68;1814286;78;20994;-84
2020/12/14 12:09:49;;;;;;;6.87;5.33;;;;;;;6.57;100.00;101314.50;1811168;79;21160;-81
2020/12/14 12:12:16;;;;;;;5.90;4.75;;;;;;;6.57;100.00;101317.92;1793111;78;21204;-83
2020/12/14 12:14:45;;;;;;;5.25;4.67;;;;;;;6.55;100.00;101314.55;1820926;78;21210;-80
2020/12/14 12:17:13;;;;;;;17.37;12.07;;;;;;;6.60;100.00;101319.54;1789802;78;22080;-82
2020/12/14 12:19:41;;;;;;;17.27;12.07;;;;;;;6.63;100.00;101316.39;1792685;79;21156;-79
2020/12/14 12:22:11;;;;;;;10.88;7.70;;;;;;;6.69;100.00;101321.30;1795565;80;21212;-83
2020/12/14 12:24:39;;;;;;;10.10;6.85;;;;;;;6.71;100.00;101318.20;1801722;79;21191;-86
2020/12/14 12:27:07;;;;;;;7.33;5.15;;;;;;;6.74;100.00;101318.53;1772206;79;21541;-83
2020/12/14 12:29:35;;;;;;;7.37;5.30;;;;;;;6.73;100.00;101325.42;1812411;78;22110;-80
2020/12/14 12:32:03;;;;;;;8.95;6.45;;;;;;;6.72;100.00;101328.08;1787875;79;21112;-83
2020/12/14 12:34:33;;;;;;;17.20;10.78;;;;;;;6.70;100.00;101329.89;1783441;78;21476;-82
2020/12/14 12:37:02;;;;;;;15.03;9.80;;;;;;;6.66;100.00;101325.30;1782308;79;21168;-78
2020/12/14 12:39:32;;;;;;;11.60;7.37;;;;;;;6.65;100.00;101326.63;1780049;79;21136;-83
2020/12/14 12:42:02;;;;;;;7.47;4.92;;;;;;;6.63;100.00;101325.86;1799642;79;22099;-82
2020/12/14 12:44:30;;;;;;;5.62;4.40;;;;;;;6.58;100.00;101333.77;1804218;79;21053;-85
2020/12/14 12:46:58;;;;;;;7.28;5.75;;;;;;;6.52;100.00;101330.58;1781912;79;21559;-84
2020/12/14 12:49:28;;;;;;;10.18;6.47;;;;;;;6.47;100.00;101332.06;1810428;78;21197;-83
2020/12/14 12:51:58;;;;;;;13.90;8.63;;;;;;;6.46;100.00;101330.38;1786421;79;21022;-81
2020/12/14 12:54:31;;;;;;;21.07;16.93;;;;;;;6.48;100.00;101332.91;1780372;80;21164;-87
2020/12/14 12:57:04;;;;;;;14.20;10.23;;;;;;;6.50;100.00;101344.84;1784582;80;21141;-85
2020/12/14 12:59:34;;;;;;;12.00;6.67;;;;;;;6.50;100.00;101340.97;1787069;80;21251;-82
2020/12/14 13:02:07;;;;;;;11.18;7.30;;;;;;;6.47;100.00;101345.41;1783279;79;21379;-86
2020/12/14 13:04:37;;;;;;;7.75;6.28;;;;;;;6.47;100.00;101359.58;1802751;78;21152;-81
2020/12/14 13:07:06;;;;;;;7.53;6.00;;;;;;;6.46;100.00;101360.03;1780528;80;21215;-85
2020/12/14 13:09:34;;;;;;;10.08;7.28;;;;;;;6.46;100.00;101372.07;1782029;80;21303;-82
2020/12/14 13:12:05;;;;;;;8.98;6.83;;;;;;;6.45;100.00;101376.83;1781062;80;20998;-82
2020/12/14 13:14:35;;;;;;;8.05;6.28;;;;;;;6.44;100.00;101380.33;1781272;80;21168;-85
2020/12/14 13:17:03;;;;;;;16.07;10.93;;;;;;;6.42;100.00;101384.23;1783876;80;21064;-86
2020/12/14 13:19:33;;;;;;;13.10;9.48;;;;;;;6.44;100.00;101390.64;1772620;80;21188;-86
2020/12/14 13:22:06;;;;;;;10.70;9.23;;;;;;;6.45;100.00;101383.27;1801059;79;20986;-88
2020/12/14 13:24:36;;;;;;;15.75;12.00;;;;;;;6.43;100.00;101390.23;1796877;79;21152;-82
2020/12/14 13:27:06;;;;;;;12.15;8.40;;;;;;;6.41;100.00;101390.31;1797614;79;21164;-83
2020/12/14 13:29:34;;;;;;;11.22;8.35;;;;;;;6.40;100.00;101396.35;1794185;79;21187;-85
2020/12/14 13:32:09;;;;;;;11.15;8.88;;;;;;;6.38;100.00;101394.30;1794978;79;21670;-84
2020/12/14 13:34:37;;;;;;;11.03;8.25;;;;;;;6.37;100.00;101391.31;1792982;79;21266;-81
2020/12/14 13:37:05;;;;;;;12.23;8.13;;;;;;;6.36;100.00;101401.22;1799288;79;21768;-82
2020/12/14 13:39:33;;;;;;;116.82;62.17;;;;;;;6.31;100.00;101399.27;1794205;79;20947;-84
2020/12/14 13:42:03;;;;;;;39.08;23.47;;;;;;;6.29;100.00;101396.73;1790260;79;21584;-84
2020/12/14 13:44:31;;;;;;;22.95;13.00;;;;;;;6.29;100.00;101399.76;1797721;79;21179;-82
2020/12/14 13:46:59;;;;;;;18.42;11.63;;;;;;;6.28;100.00;101399.39;1792356;79;21141;-83
2020/12/14 13:49:27;;;;;;;16.10;10.20;;;;;;;6.29;100.00;101412.20;1797821;79;21033;-87
2020/12/14 13:51:58;;;;;;;17.60;10.75;;;;;;;6.29;100.00;101407.48;1789743;79;21152;-82
2020/12/14 13:54:26;;;;;;;18.10;11.45;;;;;;;6.28;100.00;101405.83;1803524;79;21145;-82
2020/12/14 13:56:54;;;;;;;15.03;10.55;;;;;;;6.30;100.00;101406.61;1802810;79;21483;-84
2020/12/14 13:59:22;;;;;;;17.73;11.53;;;;;;;6.28;100.00;101400.23;1814441;78;21072;-83
2020/12/14 14:01:50;;;;;;;16.97;11.20;;;;;;;6.25;100.00;101404.18;1794631;80;21056;-82
2020/12/14 14:04:18;;;;;;;19.35;11.50;;;;;;;6.21;100.00;101405.66;1808250;78;21599;-85
2020/12/14 14:06:50;;;;;;;18.77;11.60;;;;;;;6.16;100.00;101407.53;1761730;80;21204;-83
2020/12/14 14:09:18;;;;;;;18.00;11.33;;;;;;;6.14;100.00;101413.20;1794503;80;21242;-83
2020/12/14 14:11:49;;;;;;;16.65;11.80;;;;;;;6.10;100.00;101420.64;1794622;78;21078;-84
2020/12/14 14:14:17;;;;;;;16.87;10.95;;;;;;;6.09;100.00;101421.56;1791018;78;21161;-81
2020/12/14 14:16:54;;;;;;;26.50;14.63;;;;;;;6.09;100.00;101426.27;1770603;81;21491;-88
2020/12/14 14:19:22;;;;;;;33.65;17.25;;;;;;;6.10;100.00;101421.93;1770311;81;21189;-86
2020/12/14 14:21:56;;;;;;;24.07;14.45;;;;;;;6.09;100.00;101421.56;1769924;79;21204;-83
2020/12/14 14:24:24;;;;;;;24.37;15.28;;;;;;;6.06;100.00;101427.64;1769077;81;21158;-81
2020/12/14 14:26:56;;;;;;;20.90;13.22;;;;;;;6.03;100.00;101418.73;1769418;81;21601;-86
2020/12/14 14:29:24;;;;;;;24.18;14.03;;;;;;;5.96;100.00;101414.71;1769486;80;21221;-85
2020/12/14 14:31:53;;;;;;;23.70;13.03;;;;;;;5.91;100.00;101405.44;1769803;81;21188;-82
2020/12/14 14:34:21;;;;;;;23.70;14.23;;;;;;;5.88;100.00;101410.25;1769876;81;21669;-81
2020/12/14 14:36:57;;;;;;;19.75;11.93;;;;;;;5.87;100.00;101410.33;1769676;81;21225;-83
2020/12/14 14:42:10;;;;;;;17.00;12.30;;;;;;;5.84;100.00;101408.64;1954922;73;22331;-81
2020/12/14 14:44:39;;;;;;;17.40;11.40;;;;;;;5.78;100.00;101422.58;1920308;74;20996;-79
2020/12/14 14:47:07;;;;;;;18.95;11.57;;;;;;;5.76;100.00;101420.95;1920673;74;21168;-83
2020/12/14 14:49:35;;;;;;;18.07;11.45;;;;;;;5.73;100.00;101428.34;1920846;74;21058;-86
2020/12/14 14:52:03;;;;;;;17.10;11.50;;;;;;;5.74;100.00;101431.77;1920754;73;21736;-89
2020/12/14 14:54:33;;;;;;;17.57;12.30;;;;;;;5.76;100.00;101432.54;1920346;74;20976;-81
2020/12/14 14:57:01;;;;;;;19.37;12.10;;;;;;;5.75;100.00;101425.26;1920821;74;21034;-88
2020/12/14 14:59:28;;;;;;;17.98;11.22;;;;;;;5.75;100.00;101424.41;1921020;74;22084;-84
2020/12/14 15:01:59;;;;;;;20.43;12.28;;;;;;;5.74;100.00;101420.98;1920427;74;21343;-81
2020/12/14 15:04:27;;;;;;;18.40;11.95;;;;;;;5.74;100.00;101424.03;1920708;74;20965;-84
2020/12/14 15:06:55;;;;;;;18.40;11.08;;;;;;;5.73;100.00;101416.75;1920528;73;21028;-84
2020/12/14 15:09:23;;;;;;;17.48;12.18;;;;;;;5.74;100.00;101427.42;1920714;74;21448;-81
2020/12/14 15:11:51;;;;;;;19.60;11.97;;;;;;;5.75;100.00;101432.98;1920654;74;22056;-80
2020/12/14 15:14:19;;;;;;;16.37;11.53;;;;;;;5.77;100.00;101446.67;1920545;74;21896;-82
2020/12/14 15:16:47;;;;;;;17.15;11.43;;;;;;;5.78;100.00;101447.04;1920511;74;21158;-86
2020/12/14 15:19:15;;;;;;;17.00;11.68;;;;;;;5.80;100.00;101454.73;1920676;74;21612;-86
2020/12/14 15:21:44;;;;;;;17.32;11.08;;;;;;;5.80;100.00;101453.44;1920433;74;21126;-85
2020/12/14 15:24:14;;;;;;;17.73;11.53;;;;;;;5.80;100.00;101458.16;1920909;74;22074;-81
2020/12/14 15:26:42;;;;;;;16.87;11.63;;;;;;;5.79;100.00;101452.59;1920421;74;20973;-79
2020/12/14 15:29:11;;;;;;;17.77;11.53;;;;;;;5.80;100.00;101447.00;1920591;74;21000;-84
2020/12/14 15:31:42;;;;;;;18.07;11.22;;;;;;;5.77;100.00;101450.53;1920547;74;20968;-81
2020/12/14 15:34:11;;;;;;;16.50;11.08;;;;;;;5.76;100.00;101446.27;1920646;74;20952;-82
2020/12/14 15:36:40;;;;;;;16.52;10.63;;;;;;;5.76;100.00;101455.72;1920545;74;21261;-85
2020/12/14 15:39:08;;;;;;;15.53;10.72;;;;;;;5.76;100.00;101467.30;1920839;74;20960;-84
2020/12/14 15:41:36;;;;;;;17.15;11.55;;;;;;;5.75;100.00;101475.47;1918910;74;21071;-88
2020/12/14 15:44:04;;;;;;;13.85;10.13;;;;;;;5.74;100.00;101476.36;1917805;74;21486;-79
2020/12/14 15:46:33;;;;;;;17.75;11.40;;;;;;;5.75;100.00;101481.91;1917990;74;21487;-83
2020/12/14 15:49:01;;;;;;;16.17;11.22;;;;;;;5.74;100.00;101481.50;1917962;74;21180;-86
2020/12/14 15:51:29;;;;;;;17.40;10.45;;;;;;;5.70;100.00;101487.67;1917933;74;21075;-82
2020/12/14 15:53:57;;;;;;;17.67;11.55;;;;;;;5.69;100.00;101495.44;1917376;74;21032;-82
2020/12/14 15:56:27;;;;;;;24.92;11.63;;;;;;;5.68;100.00;101499.73;1917671;74;20893;-86
2020/12/14 15:58:56;;;;;;;18.27;11.25;;;;;;;5.68;100.00;101502.31;1917372;74;21086;-86
2020/12/14 16:01:24;;;;;;;19.45;11.90;;;;;;;5.68;100.00;101506.17;1917435;74;21121;-83
2020/12/14 16:03:52;;;;;;;14.47;10.40;;;;;;;5.68;100.00;101513.09;1917320;74;21114;-85
2020/12/14 16:06:21;;;;;;;15.38;10.38;;;;;;;5.67;100.00;101517.39;1915989;74;20858;-82
2020/12/14 16:08:49;;;;;;;18.23;11.45;;;;;;;5.67;100.00;101520.41;1916790;74;20977;-82
2020/12/14 16:11:17;;;;;;;16.30;11.08;;;;;;;5.65;100.00;101523.02;1916356;74;21728;-83
2020/12/14 16:13:45;;;;;;;17.00;11.12;;;;;;;5.63;100.00;101517.08;1917263;74;21115;-82
2020/12/14 16:16:15;;;;;;;14.87;10.32;;;;;;;5.61;100.00;101516.30;1917737;74;20897;-83
2020/12/14 16:18:45;;;;;;;21.02;11.88;;;;;;;5.60;100.00;101524.91;1915967;74;20941;-81
2020/12/14 16:21:15;;;;;;;15.68;10.85;;;;;;;5.57;100.00;101523.72;1917159;74;21166;-86
2020/12/14 16:23:44;;;;;;;16.23;10.68;;;;;;;5.55;100.00;101523.38;1863011;74;21096;-86
2020/12/14 16:26:12;;;;;;;15.35;10.58;;;;;;;5.53;100.00;101525.98;1917350;74;21230;-81
2020/12/14 16:28:41;;;;;;;14.47;10.95;;;;;;;5.51;100.00;101529.06;1917266;74;20972;-80
2020/12/14 16:31:09;;;;;;;15.43;11.35;;;;;;;5.51;100.00;101532.92;1917370;74;20972;-86
2020/12/14 16:33:37;;;;;;;18.35;11.55;;;;;;;5.51;100.00;101545.80;1917343;74;21044;-86
2020/12/14 16:36:05;;;;;;;17.25;10.53;;;;;;;5.49;100.00;101548.84;1917588;74;21553;-85
2020/12/14 16:38:33;;;;;;;18.15;11.65;;;;;;;5.50;100.00;101552.27;1889927;74;21169;-84
2020/12/14 16:41:01;;;;;;;16.42;10.98;;;;;;;5.50;100.00;101558.26;1917372;74;21103;-81
2020/12/14 16:43:29;;;;;;;16.70;10.78;;;;;;;5.48;100.00;101557.91;1917520;74;21601;-86
2020/12/14 16:45:57;;;;;;;15.13;11.03;;;;;;;5.49;100.00;101563.00;1917058;74;21569;-84
2020/12/14 16:48:25;;;;;;;16.23;11.33;;;;;;;5.51;100.00;101557.81;1917358;74;21460;-83
2020/12/14 16:50:53;;;;;;;16.85;11.63;;;;;;;5.52;100.00;101558.23;1917118;74;22080;-82
2020/12/14 16:53:21;;;;;;;15.10;11.08;;;;;;;5.56;100.00;101567.08;1917465;74;20929;-83
2020/12/14 16:55:50;;;;;;;13.40;9.10;;;;;;;5.59;100.00;101569.55;1890458;74;20971;-82
2020/12/14 16:58:17;;;;;;;14.38;10.13;;;;;;;5.58;100.00;101566.61;1917431;74;21546;-81
2020/12/14 17:00:45;;;;;;;15.38;10.55;;;;;;;5.58;100.00;101570.47;1917307;74;21134;-86
2020/12/14 17:03:15;;;;;;;15.08;9.85;;;;;;;5.57;100.00;101576.94;1917346;74;21172;-83
2020/12/14 17:05:45;;;;;;;11.60;8.53;;;;;;;5.57;100.00;101573.08;1917247;74;20893;-84
2020/12/14 17:08:13;;;;;;;13.78;9.85;;;;;;;5.57;100.00;101584.66;1890332;74;21503;-86
2020/12/14 17:10:42;;;;;;;12.45;9.10;;;;;;;5.52;100.00;101595.08;1917152;74;21083;-85
2020/12/14 17:13:10;;;;;;;14.03;8.85;;;;;;;5.50;100.00;101600.73;1917222;74;20935;-80
2020/12/14 17:15:38;;;;;;;13.10;9.33;;;;;;;5.50;100.00;101605.88;1917121;74;22255;-82
2020/12/14 17:18:06;;;;;;;12.35;8.95;;;;;;;5.51;100.00;101608.86;1917494;74;21122;-80
2020/12/14 17:20:39;;;;;;;14.93;10.45;;;;;;;5.52;100.00;101604.56;1917254;74;21028;-80
2020/12/14 17:23:06;;;;;;;17.70;11.45;;;;;;;5.51;100.00;101611.44;1917748;74;21397;-82
2020/12/14 17:25:34;;;;;;;19.35;11.95;;;;;;;5.51;100.00;101619.61;1917241;74;20878;-84
2020/12/14 17:28:02;;;;;;;19.02;10.65;;;;;;;5.49;100.00;101611.91;1917365;74;21167;-88
2020/12/14 17:30:33;;;;;;;15.70;9.88;;;;;;;5.47;100.00;101606.42;1917218;74;20968;-86
2020/12/14 17:33:01;;;;;;;12.53;9.88;;;;;;;5.46;100.00;101600.42;1917233;74;21079;-82
2020/12/14 17:35:29;;;;;;;16.42;11.43;;;;;;;5.44;100.00;101602.65;1916983;74;21102;-81
2020/12/14 17:37:57;;;;;;;16.25;10.75;;;;;;;5.42;100.00;101595.43;1917293;74;21154;-84
2020/12/14 17:40:26;;;;;;;12.98;9.38;;;;;;;5.42;100.00;101595.43;1917614;74;22100;-85
2020/12/14 17:42:56;;;;;;;12.98;9.43;;;;;;;5.42;100.00;101596.27;1917020;74;20917;-87
2020/12/14 17:45:25;;;;;;;14.33;9.50;;;;;;;5.40;100.00;101595.45;1917286;74;21451;-87
2020/12/14 17:47:53;;;;;;;13.65;9.53;;;;;;;5.38;100.00;101596.40;1917131;74;21083;-84
2020/12/14 17:50:22;;;;;;;15.20;10.48;;;;;;;5.38;100.00;101609.27;1917089;74;21169;-86
2020/12/14 17:52:50;;;;;;;14.33;9.63;;;;;;;5.39;100.00;101607.95;1917355;74;22176;-85
2020/12/14 17:55:18;;;;;;;14.63;10.13;;;;;;;5.37;100.00;101610.99;1917757;74;20933;-84
2020/12/14 17:57:46;;;;;;;12.78;8.98;;;;;;;5.36;100.00;101608.02;1917757;74;20935;-83
2020/12/14 18:00:16;;;;;;;13.43;9.90;;;;;;;5.34;100.00;101613.66;1917764;74;20893;-87
2020/12/14 18:02:44;;;;;;;15.13;8.78;;;;;;;5.31;100.00;101607.31;1917830;74;21459;-88
2020/12/14 18:05:13;;;;;;;17.48;10.85;;;;;;;5.31;100.00;101613.75;1917954;74;21163;-83
2020/12/14 18:07:41;;;;;;;12.07;9.13;;;;;;;5.29;100.00;101608.66;1917634;74;20925;-81
2020/12/14 18:10:08;;;;;;;14.30;10.13;;;;;;;5.29;100.00;101609.10;1917846;74;20882;-82
2020/12/14 18:12:36;;;;;;;13.03;9.10;;;;;;;5.29;100.00;101615.53;1917735;74;21499;-86
2020/12/14 18:15:14;;;;;;;14.78;9.60;;;;;;;5.28;100.00;101621.13;1917953;74;21463;-82
2020/12/14 18:17:43;;;;;;;11.88;8.70;;;;;;;5.27;100.00;101623.28;1917840;74;21163;-87
2020/12/14 18:20:13;;;;;;;13.10;8.95;;;;;;;5.29;100.00;101627.12;1917951;74;20933;-87
2020/12/14 18:22:41;;;;;;;16.70;11.25;;;;;;;5.29;100.00;101627.97;1917916;74;20886;-87
2020/12/14 18:25:09;;;;;;;13.90;9.60;;;;;;;5.29;100.00;101635.69;1917739;74;20960;-85
2020/12/14 18:27:37;;;;;;;16.75;9.75;;;;;;;5.30;100.00;101640.36;1917825;74;20899;-84